Time;durP1;ratioP1;P1;durP2;ratioP2;P2;SDS_P1;SDS_P2;PMS_P1;PMS_P2;Temp;Humidity;BMP_temperature;BMP_pressure;BME280_temperature;BME280_humidity;BME280_pressure;Samples;Min_cycle;Max_cycle;Signal;HPM_P1;HPM_P2
2022/06/13 00:00:54;;;;;;;17.50;2.93;;;17.20;75.00;;;;;;5204824;28;20314;-50
2022/06/13 00:03:24;;;;;;;2.03;1.93;;;17.20;75.90;;;;;;5207014;28;20543;-49
2022/06/13 00:05:55;;;;;;;5.97;2.43;;;17.10;78.00;;;;;;5206573;28;20638;-49
2022/06/13 00:08:26;;;;;;;2.60;2.40;;;17.10;79.80;;;;;;5207005;28;20381;-49
2022/06/13 00:10:57;;;;;;;1.70;1.60;;;17.10;81.50;;;;;;5207505;28;20194;-50
2022/06/13 00:13:28;;;;;;;3.33;1.90;;;17.00;83.20;;;;;;5199879;28;20435;-49
2022/06/13 00:15:58;;;;;;;4.17;1.70;;;17.10;84.80;;;;;;5207112;28;20275;-48
2022/06/13 00:18:29;;;;;;;3.17;2.00;;;17.00;86.00;;;;;;5205392;28;20211;-50
2022/06/13 00:21:00;;;;;;;7.07;3.00;;;17.00;87.10;;;;;;5205221;28;20561;-50
2022/06/13 00:23:31;;;;;;;6.83;1.80;;;17.00;89.40;;;;;;5217736;28;20233;-49
2022/06/13 00:26:02;;;;;;;5.03;1.80;;;16.90;90.10;;;;;;5198043;28;20176;-50
2022/06/13 00:28:32;;;;;;;4.50;1.50;;;16.90;90.80;;;;;;5205049;28;20873;-50
2022/06/13 00:31:03;;;;;;;6.73;2.20;;;16.90;91.60;;;;;;5206125;28;20516;-50
2022/06/13 00:33:34;;;;;;;3.80;2.33;;;16.90;92.10;;;;;;5206251;28;20183;-49
2022/06/13 00:36:04;;;;;;;3.40;2.13;;;16.80;92.80;;;;;;5206967;28;20192;-49
2022/06/13 00:38:37;;;;;;;2.77;1.83;;;16.80;93.70;;;;;;5203798;28;20671;-49
2022/06/13 00:41:14;;;;;;;7.37;2.37;;;16.80;94.30;;;;;;5199290;28;20254;-49
2022/06/13 00:43:45;;;;;;;3.90;1.70;;;16.80;94.40;;;;;;5206864;28;20508;-49
2022/06/13 00:46:20;;;;;;;4.60;2.23;;;16.70;94.60;;;;;;5206449;28;20445;-50
2022/06/13 00:48:55;;;;;;;2.87;2.00;;;16.70;95.10;;;;;;5205970;28;20488;-50
2022/06/13 00:51:26;;;;;;;5.40;1.90;;;16.60;95.20;;;;;;5203988;28;20442;-49
2022/06/13 00:53:57;;;;;;;6.00;2.13;;;16.60;95.40;;;;;;5200411;28;20437;-50
2022/06/13 00:56:30;;;;;;;7.40;2.47;;;16.50;95.90;;;;;;5205898;28;20482;-49
2022/06/13 00:59:04;;;;;;;2.70;2.30;;;16.50;96.30;;;;;;5205856;28;20644;-49
2022/06/13 01:01:35;;;;;;;16.83;2.53;;;16.50;96.80;;;;;;5206090;28;20445;-49
2022/06/13 01:04:06;;;;;;;5.80;1.93;;;16.40;97.30;;;;;;5206336;28;20434;-51
2022/06/13 01:06:42;;;;;;;1.90;1.73;;;16.40;97.90;;;;;;5205342;28;20183;-49
2022/06/13 01:09:15;;;;;;;4.93;2.50;;;16.40;98.20;;;;;;5206324;28;20505;-48
2022/06/13 01:11:50;;;;;;;1.90;1.60;;;16.30;98.90;;;;;;5206994;28;20528;-49
2022/06/13 01:14:30;;;;;;;6.83;2.00;;;16.30;99.50;;;;;;5207092;28;20445;-50
2022/06/13 01:17:20;;;;;;;5.70;2.60;;;16.30;99.90;;;;;;5218185;28;20425;-49
2022/06/13 01:20:33;;;;;;;6.07;2.00;;;16.20;99.90;;;;;;5198129;28;20488;-49
2022/06/13 01:23:16;;;;;;;5.20;1.70;;;16.20;99.90;;;;;;5186926;28;20914;-49
2022/06/13 01:26:05;;;;;;;7.53;1.93;;;16.20;99.90;;;;;;5207131;28;20426;-49
2022/06/13 01:29:20;;;;;;;5.53;2.27;;;16.10;99.90;;;;;;5206800;28;20450;-49
2022/06/13 01:32:27;;;;;;;11.03;2.20;;;16.10;99.90;;;;;;5183345;28;20474;-51
2022/06/13 01:35:24;;;;;;;5.00;2.40;;;16.20;99.90;;;;;;5234235;28;20450;-49
2022/06/13 01:38:02;;;;;;;6.37;2.83;;;16.10;99.90;;;;;;5206588;28;20473;-49
2022/06/13 01:40:45;;;;;;;15.33;3.17;;;16.10;99.90;;;;;;5205330;28;20438;-50
2022/06/13 01:44:16;;;;;;;8.27;2.50;;;16.10;99.90;;;;;;5202453;28;20472;-49
2022/06/13 01:47:10;;;;;;;3.40;2.27;;;16.00;99.90;;;;;;5204655;28;20430;-50
2022/06/13 01:49:59;;;;;;;6.70;2.97;;;15.90;99.90;;;;;;5204284;28;20568;-49
2022/06/13 01:52:39;;;;;;;4.03;2.37;;;15.90;99.90;;;;;;5203475;28;20480;-51
2022/06/13 01:55:24;;;;;;;4.47;2.30;;;15.80;99.90;;;;;;5200382;28;20532;-48
2022/06/13 01:58:14;;;;;;;6.70;2.40;;;15.80;99.90;;;;;;5203861;28;20664;-53
2022/06/13 02:00:54;;;;;;;2.43;1.80;;;15.80;99.90;;;;;;5201373;28;20595;-54
2022/06/13 02:03:46;;;;;;;4.13;2.23;;;15.70;99.90;;;;;;5203555;28;20517;-54
2022/06/13 02:06:16;;;;;;;7.17;2.93;;;15.70;99.90;;;;;;5204934;28;20430;-53
2022/06/13 02:08:56;;;;;;;3.63;1.83;;;15.70;99.90;;;;;;5209092;28;20469;-54
2022/06/13 02:11:34;;;;;;;4.70;2.17;;;15.70;99.90;;;;;;5205582;28;20184;-49
2022/06/13 02:14:08;;;;;;;7.20;2.70;;;15.70;99.90;;;;;;5197213;28;20505;-53
2022/06/13 02:16:49;;;;;;;5.90;2.30;;;15.60;99.90;;;;;;5208631;28;20429;-54
2022/06/13 02:19:32;;;;;;;6.23;2.70;;;15.60;99.90;;;;;;5208798;28;20782;-53
2022/06/13 02:22:12;;;;;;;4.00;2.53;;;15.60;99.90;;;;;;5207933;28;20430;-54
2022/06/13 02:24:52;;;;;;;5.67;1.73;;;15.60;99.90;;;;;;5203812;28;20446;-48
2022/06/13 02:27:29;;;;;;;5.30;1.80;;;15.60;99.90;;;;;;5209285;28;20508;-47
2022/06/13 02:30:04;;;;;;;4.33;2.10;;;15.60;99.90;;;;;;5208359;28;20438;-48
2022/06/13 02:32:46;;;;;;;4.23;2.03;;;15.60;99.90;;;;;;5208280;28;20458;-52
2022/06/13 02:35:32;;;;;;;7.57;2.40;;;15.60;99.90;;;;;;5204179;28;20422;-47
2022/06/13 02:38:15;;;;;;;4.20;2.20;;;15.60;99.90;;;;;;5210269;28;20838;-48
2022/06/13 02:40:50;;;;;;;8.13;2.37;;;15.60;99.90;;;;;;5208944;28;20437;-48
2022/06/13 02:43:35;;;;;;;2.60;2.10;;;15.60;99.90;;;;;;5203320;28;20536;-48
2022/06/13 02:46:13;;;;;;;2.50;2.27;;;15.70;99.90;;;;;;5204825;28;20460;-47
2022/06/13 02:49:16;;;;;;;4.73;2.47;;;15.70;99.90;;;;;;5208588;28;20977;-48
2022/06/13 02:52:14;;;;;;;10.27;2.43;;;15.80;99.90;;;;;;5200381;28;20796;-47
2022/06/13 02:54:55;;;;;;;11.50;2.67;;;15.90;99.90;;;;;;5207806;28;20441;-48
2022/06/13 02:57:41;;;;;;;9.30;2.60;;;16.00;99.90;;;;;;5219812;28;20481;-48
2022/06/13 03:00:15;;;;;;;6.80;2.17;;;16.10;99.90;;;;;;5201931;28;20539;-48
2022/06/13 03:03:08;;;;;;;5.30;2.90;;;16.10;99.90;;;;;;5207142;28;20414;-49
2022/06/13 03:05:58;;;;;;;7.93;2.97;;;16.10;99.90;;;;;;5210590;28;20445;-51
2022/06/13 03:08:35;;;;;;;16.23;2.70;;;16.10;99.90;;;;;;5202505;28;20503;-48
2022/06/13 03:11:11;;;;;;;2.73;2.00;;;16.20;99.90;;;;;;5197980;28;20545;-48
2022/06/13 03:14:12;;;;;;;5.70;2.10;;;16.10;99.90;;;;;;5202032;28;20854;-49
2022/06/13 03:17:11;;;;;;;2.87;2.67;;;16.00;99.90;;;;;;5202147;28;20441;-49
2022/06/13 03:19:53;;;;;;;5.40;2.43;;;16.00;99.90;;;;;;5214106;28;20844;-48
2022/06/13 03:22:33;;;;;;;5.63;2.73;;;15.90;99.90;;;;;;5222914;28;20465;-48
2022/06/13 03:25:05;;;;;;;4.30;2.00;;;15.80;99.90;;;;;;5190921;28;20780;-48
2022/06/13 03:27:51;;;;;;;5.10;2.73;;;15.90;99.90;;;;;;5203676;28;20461;-49
2022/06/13 03:30:25;;;;;;;6.90;2.90;;;15.80;99.90;;;;;;5202507;28;20473;-51
2022/06/13 03:35:57;;;;;;;10.50;2.87;;;15.80;99.90;;;;;;5208997;28;20402;-50
2022/06/13 03:38:33;;;;;;;2.80;2.60;;;15.80;99.90;;;;;;5207729;28;20458;-49
2022/06/13 03:41:06;;;;;;;2.93;2.60;;;15.80;99.90;;;;;;5207418;28;20438;-51
2022/06/13 03:43:54;;;;;;;4.67;2.67;;;15.90;99.90;;;;;;5222950;28;20430;-51
2022/06/13 03:46:33;;;;;;;4.63;2.60;;;15.90;99.90;;;;;;5222361;28;20434;-48
2022/06/13 03:49:08;;;;;;;5.93;2.70;;;15.80;99.90;;;;;;5210618;28;20465;-48
2022/06/13 03:51:43;;;;;;;9.77;3.10;;;15.90;99.90;;;;;;5205909;28;20780;-48
2022/06/13 03:54:34;;;;;;;17.27;3.93;;;15.80;99.90;;;;;;5222929;28;20440;-49
2022/06/13 03:57:17;;;;;;;6.47;2.60;;;15.90;99.90;;;;;;5205957;28;20493;-47
2022/06/13 03:59:56;;;;;;;6.50;3.03;;;15.80;99.90;;;;;;5206678;28;20466;-48
2022/06/13 04:02:31;;;;;;;7.10;2.57;;;15.90;99.90;;;;;;5216856;28;20426;-47
2022/06/13 04:05:01;;;;;;;9.13;2.50;;;15.90;99.90;;;;;;5207507;28;20503;-48
2022/06/13 04:07:36;;;;;;;11.30;3.13;;;15.90;99.90;;;;;;5201228;28;20440;-49
2022/06/13 04:10:10;;;;;;;10.13;3.23;;;16.00;99.90;;;;;;5218209;28;20183;-48
2022/06/13 04:13:07;;;;;;;8.37;2.90;;;16.00;99.90;;;;;;5205924;28;20492;-50
2022/06/13 04:15:41;;;;;;;9.37;3.10;;;16.00;99.90;;;;;;5200952;28;20941;-48
2022/06/13 04:18:35;;;;;;;12.00;3.60;;;16.00;99.90;;;;;;5205549;28;20484;-48
2022/06/13 04:21:06;;;;;;;4.77;2.37;;;16.00;99.90;;;;;;5237911;28;20427;-48
2022/06/13 04:24:04;;;;;;;10.43;3.30;;;16.00;99.90;;;;;;5206700;28;20434;-48
2022/06/13 04:27:05;;;;;;;7.00;3.10;;;16.10;99.90;;;;;;5206172;28;20199;-48
2022/06/13 04:29:51;;;;;;;9.73;2.83;;;16.10;99.90;;;;;;5198363;28;20470;-48
2022/06/13 04:32:29;;;;;;;15.37;3.97;;;16.20;99.90;;;;;;5203361;28;20941;-49
2022/06/13 04:35:00;;;;;;;5.33;2.70;;;16.40;99.90;;;;;;5204251;28;20447;-47
2022/06/13 04:37:31;;;;;;;15.13;3.33;;;16.70;99.90;;;;;;5215514;28;20457;-48
2022/06/13 04:40:07;;;;;;;7.83;3.20;;;16.80;99.90;;;;;;5204990;28;20422;-48
2022/06/13 04:42:39;;;;;;;13.43;3.40;;;16.90;99.90;;;;;;5220588;28;20434;-49
2022/06/13 04:45:24;;;;;;;3.73;3.03;;;17.00;99.90;;;;;;5222157;28;20887;-48
2022/06/13 04:47:57;;;;;;;8.43;2.70;;;17.30;99.90;;;;;;5194970;28;20443;-56
2022/06/13 04:50:41;;;;;;;11.87;2.70;;;18.20;97.80;;;;;;5218230;28;20578;-48
2022/06/13 04:53:22;;;;;;;16.47;3.27;;;18.80;93.20;;;;;;5204761;28;20772;-47
2022/06/13 04:55:54;;;;;;;7.37;3.07;;;19.70;90.10;;;;;;5205924;28;20468;-47
2022/06/13 04:58:39;;;;;;;10.50;2.30;;;20.60;82.00;;;;;;5205933;28;20474;-47
2022/06/13 05:01:40;;;;;;;12.70;3.00;;;21.10;73.20;;;;;;5202804;28;20461;-47
2022/06/13 05:04:14;;;;;;;3.37;2.30;;;20.60;68.80;;;;;;5203397;28;20988;-49
2022/06/13 05:06:51;;;;;;;9.07;2.57;;;20.70;68.00;;;;;;5211018;28;20430;-52
2022/06/13 05:09:33;;;;;;;14.63;3.27;;;21.10;65.50;;;;;;5205887;28;20438;-49
2022/06/13 05:12:12;;;;;;;8.33;4.10;;;21.90;61.10;;;;;;5205773;28;20445;-48
2022/06/13 05:14:49;;;;;;;8.03;3.10;;;22.10;57.60;;;;;;5199057;28;20832;-50
2022/06/13 05:17:58;;;;;;;10.00;3.10;;;22.00;55.80;;;;;;5205028;28;20545;-47
2022/06/13 05:21:15;;;;;;;4.73;2.83;;;21.90;55.00;;;;;;5205366;28;20455;-48
2022/06/13 05:23:52;;;;;;;13.07;2.87;;;22.00;54.90;;;;;;5165867;28;20561;-47
2022/06/13 05:26:28;;;;;;;3.80;2.57;;;23.40;53.50;;;;;;5204186;28;20434;-47
2022/06/13 05:29:00;;;;;;;5.40;2.60;;;24.30;49.90;;;;;;5205180;28;20454;-48
2022/06/13 05:31:31;;;;;;;4.83;2.37;;;24.30;47.90;;;;;;5204169;28;20434;-48
2022/06/13 05:34:02;;;;;;;3.10;2.50;;;25.30;47.10;;;;;;5204315;28;20445;-48
2022/06/13 05:36:34;;;;;;;4.90;3.03;;;25.70;44.70;;;;;;5205309;28;20686;-48
2022/06/13 05:39:06;;;;;;;3.73;2.43;;;24.60;45.90;;;;;;5204395;28;20482;-52
2022/06/13 05:41:37;;;;;;;9.93;3.27;;;24.20;47.00;;;;;;5203952;28;20426;-48
2022/06/13 05:44:09;;;;;;;6.80;2.63;;;24.70;46.50;;;;;;5196069;28;20923;-57
2022/06/13 05:46:40;;;;;;;6.37;2.93;;;25.60;44.30;;;;;;5205638;28;20180;-49
2022/06/13 05:49:12;;;;;;;8.07;3.70;;;25.50;42.80;;;;;;5196087;28;20549;-48
2022/06/13 05:51:43;;;;;;;7.20;2.87;;;25.60;42.80;;;;;;5195739;28;20795;-47
2022/06/13 05:54:14;;;;;;;6.10;2.90;;;25.70;42.60;;;;;;5205160;28;20425;-50
2022/06/13 05:56:45;;;;;;;4.33;2.17;;;25.50;41.70;;;;;;5204724;28;20294;-53
2022/06/13 05:59:15;;;;;;;4.30;1.93;;;24.70;41.30;;;;;;5220461;23;20238;-55
2022/06/13 06:01:46;;;;;;;4.53;3.03;;;23.60;43.00;;;;;;5214372;28;20271;-57
2022/06/13 06:04:16;;;;;;;3.93;2.17;;;23.60;44.20;;;;;;5221518;28;20184;-58
2022/06/13 06:06:47;;;;;;;10.27;3.43;;;24.10;43.80;;;;;;5208624;28;20244;-57
2022/06/13 06:09:18;;;;;;;13.23;3.10;;;24.00;42.00;;;;;;5221057;28;20199;-58
2022/06/13 06:11:49;;;;;;;5.83;2.50;;;23.70;42.60;;;;;;5226785;28;20252;-57
2022/06/13 06:14:19;;;;;;;5.93;3.17;;;23.60;42.10;;;;;;5224392;28;20344;-56
2022/06/13 06:16:50;;;;;;;7.50;2.17;;;24.00;42.10;;;;;;5220542;28;20541;-57
2022/06/13 06:19:22;;;;;;;4.90;1.70;;;23.70;40.80;;;;;;5217725;28;20678;-57
2022/06/13 06:21:53;;;;;;;7.47;2.40;;;23.70;41.60;;;;;;5220517;28;20175;-57
2022/06/13 06:24:23;;;;;;;5.77;2.50;;;23.40;42.00;;;;;;5221591;28;20405;-57
2022/06/13 06:26:55;;;;;;;17.17;4.70;;;23.50;42.70;;;;;;5215115;28;20255;-55
2022/06/13 06:29:25;;;;;;;4.63;2.30;;;23.80;41.80;;;;;;5224422;28;20210;-58
2022/06/13 06:31:56;;;;;;;2.27;2.10;;;22.60;41.80;;;;;;5221485;28;20525;-60
2022/06/13 06:34:27;;;;;;;4.27;2.40;;;21.10;43.70;;;;;;5216826;28;20252;-57
2022/06/13 06:36:57;;;;;;;3.07;1.93;;;20.30;45.90;;;;;;5214520;28;20290;-56
2022/06/13 06:39:28;;;;;;;3.13;1.30;;;20.00;46.90;;;;;;5220101;28;20215;-57
2022/06/13 06:41:59;;;;;;;2.40;1.53;;;20.00;46.30;;;;;;5225443;28;20618;-58
2022/06/13 06:44:29;;;;;;;5.87;1.50;;;19.40;46.20;;;;;;5214080;28;20266;-60
2022/06/13 06:47:00;;;;;;;7.10;2.40;;;19.10;47.40;;;;;;5224770;28;20194;-57
2022/06/13 06:49:34;;;;;;;5.63;1.97;;;19.30;47.20;;;;;;5219649;28;20249;-57
2022/06/13 06:52:05;;;;;;;2.93;1.83;;;18.90;46.90;;;;;;5221625;28;20179;-56
2022/06/13 07:00:15;;;;;;;4.13;2.27;;;18.50;47.80;;;;;;5224490;28;20416;-54
2022/06/13 07:02:45;;;;;;;6.47;2.07;;;18.80;48.40;;;;;;5227669;28;20527;-57
2022/06/13 07:05:16;;;;;;;3.37;1.77;;;19.70;47.20;;;;;;5230135;28;20429;-57
2022/06/13 07:07:47;;;;;;;3.97;1.67;;;20.30;45.90;;;;;;5215267;28;20562;-57
2022/06/13 07:10:19;;;;;;;1.60;1.50;;;20.20;45.40;;;;;;5224718;28;20210;-55
2022/06/13 07:12:49;;;;;;;4.77;1.93;;;19.80;45.90;;;;;;5226401;28;20167;-56
2022/06/13 07:15:20;;;;;;;8.70;2.50;;;19.60;46.60;;;;;;5223659;28;20505;-56
2022/06/13 07:17:51;;;;;;;3.80;1.60;;;20.20;46.70;;;;;;5227720;28;20260;-57
2022/06/13 07:20:22;;;;;;;9.90;2.40;;;21.60;43.70;;;;;;5223632;28;20497;-58
2022/06/13 07:22:53;;;;;;;5.50;1.70;;;23.10;41.20;;;;;;5225514;28;20670;-58
2022/06/13 07:25:27;;;;;;;3.03;1.73;;;24.70;38.00;;;;;;5226850;28;20447;-58
2022/06/13 07:27:58;;;;;;;11.53;1.90;;;25.40;36.70;;;;;;5212203;28;20458;-57
2022/06/13 07:30:29;;;;;;;7.60;1.90;;;26.10;35.20;;;;;;5207133;28;20480;-55
2022/06/13 07:33:00;;;;;;;4.33;1.60;;;25.60;34.30;;;;;;5228357;28;20187;-57
2022/06/13 07:35:32;;;;;;;6.40;2.10;;;23.60;36.40;;;;;;5219775;28;21456;-58
2022/06/13 07:38:17;;;;;;;14.80;2.50;;;22.80;38.50;;;;;;5217697;28;20306;-57
2022/06/13 07:40:51;;;;;;;11.93;1.83;;;22.20;39.90;;;;;;5222545;28;20441;-57
2022/06/13 07:43:33;;;;;;;7.70;1.73;;;21.40;40.50;;;;;;5224198;28;20724;-58
2022/06/13 07:46:06;;;;;;;3.13;1.37;;;20.90;41.90;;;;;;5225377;28;20442;-55
2022/06/13 07:48:37;;;;;;;11.30;2.53;;;20.50;42.50;;;;;;5218086;28;20443;-56
2022/06/13 07:51:09;;;;;;;1.40;1.30;;;20.10;43.00;;;;;;5222022;28;20423;-57
2022/06/13 07:53:39;;;;;;;11.73;2.03;;;19.60;43.30;;;;;;5216219;28;20433;-57
2022/06/13 07:56:15;;;;;;;4.33;2.63;;;19.30;43.50;;;;;;5223968;28;20440;-61
2022/06/13 07:58:49;;;;;;;5.70;1.37;;;18.80;43.90;;;;;;5222151;28;20651;-57
2022/06/13 08:01:21;;;;;;;4.57;1.83;;;18.80;44.30;;;;;;5227408;28;20430;-57
2022/06/13 08:03:53;;;;;;;8.50;2.40;;;18.90;44.70;;;;;;5218990;28;20433;-57
2022/06/13 08:06:25;;;;;;;1.50;1.40;;;18.80;45.00;;;;;;5226573;28;20475;-56
2022/06/13 08:08:56;;;;;;;1.67;1.53;;;18.70;45.80;;;;;;5222716;28;21020;-56
2022/06/13 08:11:35;;;;;;;1.60;1.13;;;18.80;46.40;;;;;;5219925;28;20441;-56
2022/06/13 08:14:06;;;;;;;4.20;2.00;;;19.00;46.60;;;;;;5226339;28;20527;-57
2022/06/13 08:16:37;;;;;;;7.77;2.40;;;19.20;46.80;;;;;;5225980;28;20452;-56
2022/06/13 08:19:08;;;;;;;5.27;1.87;;;19.80;46.60;;;;;;5221993;28;20211;-56
2022/06/13 08:21:38;;;;;;;17.60;2.50;;;20.80;45.20;;;;;;5221729;28;20419;-58
2022/06/13 08:24:09;;;;;;;14.43;2.70;;;22.20;42.80;;;;;;5216546;28;20652;-57
2022/06/13 08:26:40;;;;;;;4.07;1.47;;;23.70;41.30;;;;;;5211911;28;20717;-57
2022/06/13 08:29:11;;;;;;;2.47;2.07;;;24.90;39.10;;;;;;5218454;28;20250;-57
2022/06/13 08:31:42;;;;;;;6.97;1.33;;;26.40;37.20;;;;;;5225903;28;20269;-58
2022/06/13 08:34:13;;;;;;;8.00;1.90;;;28.30;34.90;;;;;;5223697;28;20447;-57
2022/06/13 08:36:43;;;;;;;4.87;2.00;;;28.70;31.20;;;;;;5215306;28;20417;-58
2022/06/13 08:39:14;;;;;;;16.37;3.37;;;27.80;31.20;;;;;;5226776;28;20195;-58
2022/06/13 08:41:57;;;;;;;15.80;2.40;;;28.00;32.00;;;;;;5215402;28;20219;-58
2022/06/13 08:44:52;;;;;;;2.90;1.90;;;29.00;31.30;;;;;;5224742;28;20461;-59
2022/06/13 08:47:32;;;;;;;116.03;18.50;;;28.50;30.40;;;;;;5225289;28;20487;-57
2022/06/13 08:50:15;;;;;;;9.30;2.70;;;28.90;30.30;;;;;;5207962;28;20441;-58
2022/06/13 08:52:55;;;;;;;7.33;2.13;;;27.80;30.20;;;;;;5214360;28;20480;-57
2022/06/13 08:55:33;;;;;;;4.50;2.40;;;25.20;32.70;;;;;;5222935;28;20442;-58
2022/06/13 08:58:18;;;;;;;16.97;1.90;;;23.70;35.80;;;;;;5222127;28;20569;-58
2022/06/13 09:01:01;;;;;;;19.30;2.33;;;22.80;37.60;;;;;;5215793;28;20429;-57
2022/06/13 09:03:57;;;;;;;3.73;2.17;;;22.40;38.30;;;;;;5227171;28;20421;-58
2022/06/13 09:06:51;;;;;;;3.47;2.20;;;21.80;39.20;;;;;;5225825;28;20429;-58
2022/06/13 09:09:29;;;;;;;8.20;2.40;;;21.70;40.10;;;;;;5223651;28;20541;-57
2022/06/13 09:12:06;;;;;;;17.40;3.30;;;21.40;39.60;;;;;;5223991;28;20436;-57
2022/06/13 09:14:52;;;;;;;17.77;3.93;;;21.30;40.50;;;;;;5225307;28;20443;-57
2022/06/13 09:17:41;;;;;;;8.23;2.50;;;21.20;40.40;;;;;;5216613;28;20536;-56
2022/06/13 09:20:29;;;;;;;149.27;20.17;;;21.50;40.50;;;;;;5216622;28;20478;-57
2022/06/13 09:23:10;;;;;;;166.83;21.60;;;21.80;40.60;;;;;;5223448;28;20445;-57
2022/06/13 09:25:59;;;;;;;17.87;2.80;;;22.30;40.50;;;;;;5218467;28;20529;-56
2022/06/13 09:28:46;;;;;;;5.70;2.10;;;21.90;40.10;;;;;;5220333;28;20458;-57
2022/06/13 09:31:33;;;;;;;19.83;2.10;;;21.90;40.80;;;;;;5218032;28;20484;-57
2022/06/13 09:34:08;;;;;;;7.63;2.80;;;21.00;42.70;;;;;;5224190;28;20438;-57
2022/06/13 09:36:50;;;;;;;6.63;3.00;;;21.00;43.80;;;;;;5225324;28;20416;-58
2022/06/13 09:39:20;;;;;;;5.60;2.80;;;21.00;43.50;;;;;;5220473;28;20497;-57
2022/06/13 09:42:06;;;;;;;7.93;2.40;;;21.20;43.30;;;;;;5216376;28;20516;-57
2022/06/13 09:45:02;;;;;;;4.57;2.40;;;21.50;42.30;;;;;;5214760;28;20266;-57
2022/06/13 09:47:51;;;;;;;1.90;1.60;;;21.40;41.00;;;;;;5226094;28;20796;-56
2022/06/13 09:50:43;;;;;;;7.07;2.17;;;20.90;40.50;;;;;;5223847;28;20433;-58
2022/06/13 09:53:19;;;;;;;2.03;1.80;;;20.90;41.20;;;;;;5225115;28;21069;-57
2022/06/13 09:55:57;;;;;;;10.20;2.97;;;20.60;41.20;;;;;;5221526;28;20547;-57
2022/06/13 09:58:37;;;;;;;5.10;2.50;;;20.30;42.00;;;;;;5219837;28;20473;-57
2022/06/13 10:01:39;;;;;;;8.40;4.63;;;20.40;42.20;;;;;;5222465;28;20984;-56
2022/06/13 10:04:44;;;;;;;19.83;9.57;;;20.50;42.20;;;;;;5218669;28;20964;-56
2022/06/13 10:07:45;;;;;;;25.73;9.57;;;20.60;42.50;;;;;;5210245;28;20781;-56
2022/06/13 10:10:34;;;;;;;11.23;4.00;;;20.40;41.90;;;;;;5206196;28;20500;-59
2022/06/13 10:13:28;;;;;;;7.00;3.23;;;20.30;42.20;;;;;;5220112;28;20418;-58
2022/06/13 10:16:16;;;;;;;6.63;3.13;;;20.10;42.20;;;;;;5206215;28;20410;-56
2022/06/13 10:19:00;;;;;;;5.50;2.40;;;20.20;42.40;;;;;;5217788;28;20542;-59
2022/06/13 10:21:45;;;;;;;11.93;2.77;;;20.30;41.60;;;;;;5225972;28;20921;-56
2022/06/13 10:24:30;;;;;;;6.13;2.10;;;20.20;41.90;;;;;;5212763;28;20781;-59
2022/06/13 10:27:21;;;;;;;3.30;1.80;;;20.40;41.70;;;;;;5217085;28;20860;-57
2022/06/13 10:30:27;;;;;;;5.73;2.70;;;20.40;41.40;;;;;;5228930;28;20973;-56
2022/06/13 10:33:26;;;;;;;7.47;2.30;;;20.60;42.10;;;;;;5225107;28;20417;-58
2022/06/13 10:36:22;;;;;;;2.10;1.47;;;20.50;42.70;;;;;;5218550;28;20437;-57
2022/06/13 10:39:10;;;;;;;9.37;2.50;;;20.10;43.50;;;;;;5219578;28;20480;-58
2022/06/13 10:41:44;;;;;;;24.47;8.50;;;20.10;42.40;;;;;;5216744;28;20483;-57
2022/06/13 10:44:18;;;;;;;8.63;3.17;;;20.40;42.10;;;;;;5219604;28;20434;-57
2022/06/13 10:46:51;;;;;;;10.87;3.10;;;20.70;41.80;;;;;;5213530;28;20441;-58
2022/06/13 10:49:34;;;;;;;25.40;5.50;;;20.60;41.70;;;;;;5226537;28;20485;-58
2022/06/13 10:52:14;;;;;;;5.73;2.50;;;20.40;41.70;;;;;;5217761;28;20437;-58
2022/06/13 10:54:49;;;;;;;6.20;1.97;;;20.60;41.90;;;;;;5223759;28;20436;-57
2022/06/13 10:57:34;;;;;;;2.80;1.97;;;20.60;40.70;;;;;;5227667;28;20490;-59
2022/06/13 11:00:15;;;;;;;12.83;3.00;;;20.50;41.30;;;;;;5216076;28;20468;-58
2022/06/13 11:02:47;;;;;;;14.93;3.70;;;20.70;40.90;;;;;;5222131;28;20436;-58
2022/06/13 11:05:23;;;;;;;2.80;2.10;;;20.90;40.50;;;;;;5223001;28;20925;-58
2022/06/13 11:08:00;;;;;;;13.07;1.83;;;21.00;39.80;;;;;;5226727;28;20497;-57
2022/06/13 11:10:40;;;;;;;34.30;11.40;;;20.70;39.50;;;;;;5215090;28;20422;-57
2022/06/13 11:13:16;;;;;;;18.77;7.67;;;20.40;39.80;;;;;;5226975;28;20410;-57
2022/06/13 11:24:52;;;;;;;4.70;2.97;;;20.20;39.70;;;;;;5223426;28;20503;-57
2022/06/13 11:27:40;;;;;;;103.37;11.63;;;20.40;40.40;;;;;;5226970;28;20435;-58
2022/06/13 11:30:23;;;;;;;4.67;2.47;;;20.50;39.00;;;;;;5227372;28;20456;-60
2022/06/13 11:33:26;;;;;;;5.10;2.30;;;20.60;38.20;;;;;;5211793;28;20436;-59
2022/06/13 11:36:26;;;;;;;9.00;1.93;;;20.60;39.00;;;;;;5213776;28;20517;-58
2022/06/13 11:39:04;;;;;;;5.90;3.07;;;20.80;39.40;;;;;;5224078;28;20472;-57
2022/06/13 11:41:46;;;;;;;5.50;2.80;;;20.90;39.00;;;;;;5224854;28;20955;-57
2022/06/13 11:44:19;;;;;;;6.27;2.57;;;20.80;38.30;;;;;;5234716;28;20586;-57
2022/06/13 11:46:55;;;;;;;6.03;1.80;;;20.70;38.50;;;;;;5221087;28;20430;-56
2022/06/13 11:49:32;;;;;;;6.40;1.93;;;20.50;38.80;;;;;;5225253;28;20576;-58
2022/06/13 11:52:13;;;;;;;3.00;1.77;;;20.60;38.80;;;;;;5216989;28;20776;-58
2022/06/13 11:54:46;;;;;;;5.40;2.13;;;20.80;39.00;;;;;;5220663;28;20493;-57
2022/06/13 12:00:04;;;;;;;4.83;1.27;;;21.00;38.60;;;;;;5173429;28;20506;-54
2022/06/13 12:02:50;;;;;;;3.13;1.50;;;21.10;38.70;;;;;;5181131;28;20826;-54
2022/06/13 12:05:35;;;;;;;4.60;2.07;;;21.10;39.40;;;;;;5176833;28;20438;-52
2022/06/13 12:08:14;;;;;;;33.33;4.33;;;21.10;39.80;;;;;;5184730;28;20912;-53
2022/06/13 12:11:25;;;;;;;12.60;2.37;;;21.00;39.70;;;;;;5181482;28;20936;-55
2022/06/13 12:13:59;;;;;;;7.90;1.87;;;20.70;39.80;;;;;;5176031;28;20444;-55
2022/06/13 12:17:01;;;;;;;11.53;2.60;;;20.30;40.80;;;;;;5183021;28;20427;-55
2022/06/13 12:20:02;;;;;;;2.63;1.97;;;20.00;42.90;;;;;;5179528;28;20525;-55
2022/06/13 12:22:41;;;;;;;6.07;2.13;;;19.70;44.20;;;;;;5171334;28;20432;-56
2022/06/13 12:25:42;;;;;;;8.87;2.50;;;19.60;45.50;;;;;;5179599;28;20461;-54
2022/06/13 12:28:16;;;;;;;9.67;3.20;;;19.60;46.00;;;;;;5178306;28;20831;-54
2022/06/13 12:31:11;;;;;;;2.37;2.13;;;19.60;46.00;;;;;;5183936;28;20437;-54
2022/06/13 12:34:00;;;;;;;63.83;8.73;;;19.30;46.30;;;;;;5179756;28;20450;-54
2022/06/13 12:36:41;;;;;;;26.20;5.47;;;19.20;47.20;;;;;;5180586;28;20435;-54
2022/06/13 12:39:16;;;;;;;16.23;4.80;;;18.90;47.50;;;;;;5178311;28;20474;-54
2022/06/13 12:41:56;;;;;;;82.70;12.57;;;18.80;46.70;;;;;;5176444;28;20592;-54
2022/06/13 12:44:49;;;;;;;20.83;9.07;;;18.80;46.50;;;;;;5175075;28;20467;-54
2022/06/13 12:47:39;;;;;;;2.20;1.40;;;18.80;46.10;;;;;;5179251;28;20462;-53
2022/06/13 12:51:02;;;;;;;3.90;2.47;;;19.20;45.60;;;;;;5180891;28;20465;-55
2022/06/13 12:53:54;;;;;;;6.80;4.43;;;20.10;45.30;;;;;;5156582;28;20609;-54
2022/06/13 12:56:43;;;;;;;16.77;1.90;;;20.40;43.80;;;;;;5177976;28;20444;-55
2022/06/13 12:59:25;;;;;;;6.17;2.20;;;20.10;42.30;;;;;;5171621;28;20479;-55
2022/06/13 13:02:23;;;;;;;5.97;2.00;;;20.00;42.80;;;;;;5181535;28;20435;-53
2022/06/13 13:05:01;;;;;;;5.90;2.07;;;19.80;42.70;;;;;;5179444;28;20444;-54
2022/06/13 13:07:44;;;;;;;5.33;2.10;;;19.60;42.70;;;;;;5181489;28;20427;-55
2022/06/13 13:10:27;;;;;;;13.70;4.33;;;19.40;43.00;;;;;;5183052;28;20458;-54
2022/06/13 13:13:35;;;;;;;17.67;4.33;;;19.30;43.40;;;;;;5178426;28;20477;-54
2022/06/13 13:16:29;;;;;;;9.53;1.70;;;19.40;43.20;;;;;;5183333;28;20488;-55
2022/06/13 13:19:18;;;;;;;9.00;1.77;;;19.30;43.40;;;;;;5173481;28;20528;-54
2022/06/13 13:22:12;;;;;;;10.30;2.90;;;19.50;44.60;;;;;;5182691;28;20446;-55
2022/06/13 13:25:13;;;;;;;4.33;2.23;;;19.70;46.30;;;;;;5184015;28;20549;-55
2022/06/13 13:27:55;;;;;;;10.63;5.33;;;19.80;48.20;;;;;;5178174;28;21040;-54
2022/06/13 13:30:37;;;;;;;3.37;2.10;;;19.80;48.20;;;;;;5172129;28;20494;-55
2022/06/13 13:33:14;;;;;;;15.87;2.93;;;20.10;48.50;;;;;;5191154;28;20485;-55
2022/06/13 13:35:47;;;;;;;4.20;1.60;;;20.30;47.40;;;;;;5174271;28;20432;-56
2022/06/13 13:38:35;;;;;;;13.97;2.03;;;20.40;46.90;;;;;;5180387;28;20463;-54
2022/06/13 13:41:16;;;;;;;4.67;1.70;;;20.20;47.10;;;;;;5180688;28;20439;-54
2022/06/13 13:43:55;;;;;;;2.60;1.00;;;20.20;46.80;;;;;;5181721;28;20527;-54
2022/06/13 13:46:37;;;;;;;7.60;1.30;;;20.10;46.60;;;;;;5173032;28;20426;-54
2022/06/13 13:49:37;;;;;;;3.50;1.20;;;20.20;46.00;;;;;;5167054;28;20543;-52
2022/06/13 13:52:31;;;;;;;0.93;0.93;;;19.90;44.60;;;;;;5173923;28;20477;-53
2022/06/13 13:55:14;;;;;;;2.97;1.20;;;19.80;45.80;;;;;;5184014;28;20434;-56
2022/06/13 13:57:50;;;;;;;3.80;1.47;;;19.60;45.70;;;;;;5183088;28;20450;-55
2022/06/13 14:00:27;;;;;;;1.00;1.00;;;19.60;46.50;;;;;;5178303;28;20446;-55
2022/06/13 14:03:18;;;;;;;6.07;4.80;;;19.50;45.60;;;;;;5175113;28;20446;-55
2022/06/13 14:05:55;;;;;;;17.40;8.20;;;19.40;46.30;;;;;;5175891;28;20432;-57
2022/06/13 14:08:30;;;;;;;3.57;2.80;;;19.50;47.30;;;;;;5179616;28;20491;-55
2022/06/13 14:11:03;;;;;;;50.43;24.70;;;19.50;47.70;;;;;;5186482;28;20449;-54